Time;durP1;ratioP1;P1;durP2;ratioP2;P2;SDS_P1;SDS_P2;PMS_P1;PMS_P2;Temp;Humidity;BMP_temperature;BMP_pressure;BME280_temperature;BME280_humidity;BME280_pressure;Samples;Min_cycle;Max_cycle;Signal;HPM_P1;HPM_P2
2021/04/09 00:00:54;;;;;;;19.83;18.23;;;;;;;;;;5027194;28;20465;-65
2021/04/09 00:03:21;;;;;;;19.73;18.23;;;;;;;;;;5022897;28;20921;-65
2021/04/09 00:05:48;;;;;;;19.07;17.40;;;;;;;;;;5029438;28;20564;-65
2021/04/09 00:08:14;;;;;;;20.13;18.60;;;;;;;;;;5015425;28;20457;-69
2021/04/09 00:10:42;;;;;;;22.87;18.00;;;;;;;;;;5031281;28;20511;-64
2021/04/09 00:13:09;;;;;;;18.90;17.33;;;;;;;;;;5031017;28;20545;-64
2021/04/09 00:15:35;;;;;;;19.00;17.17;;;;;;;;;;5030110;28;20453;-66
2021/04/09 00:18:02;;;;;;;20.03;18.00;;;;;;;;;;5033602;28;20591;-65
2021/04/09 00:20:29;;;;;;;18.53;16.73;;;;;;;;;;5029099;28;20473;-65
2021/04/09 00:22:56;;;;;;;19.87;18.27;;;;;;;;;;5034412;28;20449;-65
2021/04/09 00:25:23;;;;;;;18.87;17.13;;;;;;;;;;5033815;28;20552;-66
2021/04/09 00:27:50;;;;;;;18.20;16.50;;;;;;;;;;5025360;28;20459;-68
2021/04/09 00:30:19;;;;;;;19.83;18.27;;;;;;;;;;5031739;28;21094;-65
2021/04/09 00:32:46;;;;;;;19.77;18.07;;;;;;;;;;5026227;28;20957;-67
2021/04/09 00:35:13;;;;;;;19.90;18.10;;;;;;;;;;5028548;28;20456;-65
2021/04/09 00:37:39;;;;;;;19.73;16.80;;;;;;;;;;5028839;28;20449;-66
2021/04/09 00:40:07;;;;;;;19.57;17.80;;;;;;;;;;5023313;28;20539;-67
2021/04/09 00:42:34;;;;;;;18.03;16.53;;;;;;;;;;5022395;28;20485;-64
2021/04/09 00:45:01;;;;;;;19.40;17.70;;;;;;;;;;5022236;28;20543;-65
2021/04/09 00:47:28;;;;;;;19.23;17.50;;;;;;;;;;5032688;28;20486;-65
2021/04/09 00:49:55;;;;;;;20.53;18.63;;;;;;;;;;5033676;28;20515;-66
2021/04/09 00:52:22;;;;;;;18.53;16.93;;;;;;;;;;5023468;28;20480;-64
2021/04/09 00:54:49;;;;;;;18.80;17.20;;;;;;;;;;5019102;28;20456;-65
2021/04/09 00:57:16;;;;;;;18.67;16.93;;;;;;;;;;5024087;28;20914;-65
2021/04/09 00:59:43;;;;;;;18.70;17.00;;;;;;;;;;5017779;28;20844;-65
2021/04/09 01:02:11;;;;;;;19.43;17.47;;;;;;;;;;5023017;28;21012;-64
2021/04/09 01:04:38;;;;;;;19.50;17.80;;;;;;;;;;5022911;28;20540;-64
2021/04/09 01:07:05;;;;;;;18.70;17.20;;;;;;;;;;5014767;28;20840;-64
2021/04/09 01:09:31;;;;;;;18.27;16.47;;;;;;;;;;5021704;28;20665;-65
2021/04/09 01:11:58;;;;;;;19.53;17.53;;;;;;;;;;5025494;28;20481;-64
2021/04/09 01:14:25;;;;;;;17.50;15.90;;;;;;;;;;5024947;28;20442;-65
2021/04/09 01:16:55;;;;;;;18.00;16.40;;;;;;;;;;5032862;28;20594;-65
2021/04/09 01:19:45;;;;;;;19.57;17.73;;;;;;;;;;5033085;28;20437;-66
2021/04/09 01:22:13;;;;;;;18.47;16.70;;;;;;;;;;4992205;28;20926;-65
2021/04/09 01:24:48;;;;;;;18.73;17.13;;;;;;;;;;5025919;28;20456;-66
2021/04/09 01:27:36;;;;;;;19.57;17.70;;;;;;;;;;5020885;28;20567;-67
2021/04/09 01:30:14;;;;;;;18.63;16.83;;;;;;;;;;5003669;28;20506;-65
2021/04/09 01:32:42;;;;;;;18.90;17.20;;;;;;;;;;5026828;28;20479;-65
2021/04/09 01:35:10;;;;;;;19.23;17.63;;;;;;;;;;5034449;28;21016;-66
2021/04/09 01:37:39;;;;;;;19.10;17.40;;;;;;;;;;5024890;28;20441;-67
2021/04/09 01:40:07;;;;;;;18.40;16.80;;;;;;;;;;5033517;28;20929;-66
2021/04/09 01:42:36;;;;;;;19.90;17.90;;;;;;;;;;5016711;28;20445;-65
2021/04/09 01:45:03;;;;;;;19.30;17.70;;;;;;;;;;5020461;28;20464;-65
2021/04/09 01:47:30;;;;;;;19.17;17.40;;;;;;;;;;5032379;28;20941;-65
2021/04/09 01:49:59;;;;;;;18.40;16.80;;;;;;;;;;5026906;28;21004;-66
2021/04/09 01:52:26;;;;;;;18.23;16.67;;;;;;;;;;5020282;28;20453;-66
2021/04/09 01:54:54;;;;;;;18.90;17.00;;;;;;;;;;5029415;28;20442;-65
2021/04/09 01:57:21;;;;;;;18.53;16.83;;;;;;;;;;5032816;28;20456;-65
2021/04/09 01:59:49;;;;;;;20.20;18.40;;;;;;;;;;5032680;28;20506;-64
2021/04/09 02:02:16;;;;;;;19.60;17.80;;;;;;;;;;5032117;28;20477;-65
2021/04/09 02:04:44;;;;;;;18.53;16.93;;;;;;;;;;5032187;28;20450;-67
2021/04/09 02:07:13;;;;;;;17.77;16.17;;;;;;;;;;5033154;28;20491;-64
2021/04/09 02:09:39;;;;;;;19.17;17.27;;;;;;;;;;5034103;28;20808;-66
2021/04/09 02:12:06;;;;;;;18.07;16.47;;;;;;;;;;5036440;28;20477;-64
2021/04/09 02:14:34;;;;;;;18.97;17.20;;;;;;;;;;5031132;28;21071;-67
2021/04/09 02:17:01;;;;;;;18.10;16.30;;;;;;;;;;5025388;28;20812;-65
2021/04/09 02:19:28;;;;;;;19.33;17.53;;;;;;;;;;5019568;28;20849;-65
2021/04/09 02:21:55;;;;;;;17.50;15.67;;;;;;;;;;5033100;28;20491;-66
2021/04/09 02:24:22;;;;;;;18.20;16.73;;;;;;;;;;5032431;28;20456;-67
2021/04/09 02:26:49;;;;;;;20.37;17.43;;;;;;;;;;5027039;28;20917;-66
2021/04/09 02:29:16;;;;;;;18.40;16.70;;;;;;;;;;5017057;28;20453;-67
2021/04/09 02:31:43;;;;;;;18.70;16.90;;;;;;;;;;5031896;28;20567;-65
2021/04/09 02:34:10;;;;;;;18.67;17.00;;;;;;;;;;5026415;28;20459;-65
2021/04/09 02:36:37;;;;;;;18.27;16.67;;;;;;;;;;5031933;28;20540;-66
2021/04/09 02:39:06;;;;;;;19.03;17.03;;;;;;;;;;5024442;28;20545;-69
2021/04/09 02:41:36;;;;;;;18.20;16.70;;;;;;;;;;5013195;28;20602;-67
2021/04/09 02:44:02;;;;;;;18.43;16.90;;;;;;;;;;5013718;28;20466;-66
2021/04/09 02:46:34;;;;;;;19.93;17.87;;;;;;;;;;5031001;28;20991;-65
2021/04/09 02:49:03;;;;;;;17.63;15.83;;;;;;;;;;5031476;28;20456;-66
2021/04/09 02:51:31;;;;;;;19.53;17.87;;;;;;;;;;5031720;28;20999;-66
2021/04/09 02:54:00;;;;;;;18.30;16.70;;;;;;;;;;5025960;28;20461;-67
2021/04/09 02:56:27;;;;;;;18.57;16.87;;;;;;;;;;5036718;28;20472;-67
2021/04/09 02:58:56;;;;;;;18.93;17.37;;;;;;;;;;5022791;28;21047;-65
2021/04/09 03:01:23;;;;;;;18.33;16.60;;;;;;;;;;5025069;28;20568;-66
2021/04/09 03:03:50;;;;;;;17.73;16.03;;;;;;;;;;5012435;28;20450;-64
2021/04/09 03:06:17;;;;;;;17.83;16.30;;;;;;;;;;5026936;28;20553;-64
2021/04/09 03:08:44;;;;;;;19.23;17.53;;;;;;;;;;5029673;28;20523;-65
2021/04/09 03:11:11;;;;;;;18.93;17.17;;;;;;;;;;5031475;28;21055;-67
2021/04/09 03:13:37;;;;;;;19.07;17.20;;;;;;;;;;5016431;28;20960;-64
2021/04/09 03:16:06;;;;;;;18.17;16.63;;;;;;;;;;5023351;28;20521;-64
2021/04/09 03:18:35;;;;;;;19.07;17.37;;;;;;;;;;5016588;28;20457;-67
2021/04/09 03:21:02;;;;;;;20.53;18.53;;;;;;;;;;5029385;28;20473;-67
2021/04/09 03:23:28;;;;;;;18.30;16.43;;;;;;;;;;5031559;28;20457;-67
2021/04/09 03:25:55;;;;;;;20.00;18.20;;;;;;;;;;5021738;28;20453;-67
2021/04/09 03:28:22;;;;;;;18.57;16.87;;;;;;;;;;5013281;28;20453;-66
2021/04/09 03:30:49;;;;;;;19.67;17.87;;;;;;;;;;5026410;28;20484;-67
2021/04/09 03:33:18;;;;;;;19.93;18.00;;;;;;;;;;5032708;28;20453;-66
2021/04/09 03:35:44;;;;;;;18.33;16.70;;;;;;;;;;5028553;28;20453;-69
2021/04/09 03:38:12;;;;;;;19.67;18.00;;;;;;;;;;5035438;28;20502;-66
2021/04/09 03:40:39;;;;;;;18.53;16.70;;;;;;;;;;5034409;28;20559;-70
2021/04/09 03:43:05;;;;;;;18.93;17.33;;;;;;;;;;5028598;28;20945;-67
2021/04/09 03:45:32;;;;;;;19.70;17.77;;;;;;;;;;5034447;28;20448;-65
2021/04/09 03:47:59;;;;;;;19.07;17.37;;;;;;;;;;5034105;28;20575;-63
2021/04/09 03:50:26;;;;;;;18.20;16.70;;;;;;;;;;5034579;28;20999;-67
2021/04/09 03:52:53;;;;;;;17.93;16.13;;;;;;;;;;5034712;28;20457;-67
2021/04/09 03:55:19;;;;;;;19.60;17.60;;;;;;;;;;5033501;28;20862;-65
2021/04/09 03:57:46;;;;;;;17.80;16.20;;;;;;;;;;5034926;28;20535;-67
2021/04/09 04:00:13;;;;;;;19.70;17.80;;;;;;;;;;5033983;28;20539;-65
2021/04/09 04:02:40;;;;;;;17.70;16.00;;;;;;;;;;5035573;28;20571;-69
2021/04/09 04:05:07;;;;;;;19.63;17.67;;;;;;;;;;5033989;28;20543;-64
2021/04/09 04:07:35;;;;;;;19.67;17.70;;;;;;;;;;5035492;28;20571;-64
2021/04/09 04:10:02;;;;;;;19.90;18.27;;;;;;;;;;5029033;28;20798;-63
2021/04/09 04:12:29;;;;;;;18.87;17.27;;;;;;;;;;5035391;28;20555;-64
2021/04/09 04:14:55;;;;;;;19.70;17.80;;;;;;;;;;5021342;28;20533;-67
2021/04/09 04:17:22;;;;;;;19.43;17.73;;;;;;;;;;5015153;28;20495;-65
2021/04/09 04:19:49;;;;;;;18.20;16.80;;;;;;;;;;5024516;28;20442;-67
2021/04/09 04:22:15;;;;;;;18.50;16.83;;;;;;;;;;5018272;28;20893;-64
2021/04/09 04:24:43;;;;;;;21.00;19.10;;;;;;;;;;5032152;28;20460;-63
2021/04/09 04:27:09;;;;;;;18.83;17.13;;;;;;;;;;5034111;28;20485;-64
2021/04/09 04:29:36;;;;;;;20.00;18.00;;;;;;;;;;5034779;28;20449;-65
2021/04/09 04:32:03;;;;;;;20.10;18.27;;;;;;;;;;5030407;28;20725;-65
2021/04/09 04:34:29;;;;;;;19.30;17.40;;;;;;;;;;5019164;28;20453;-65
2021/04/09 04:36:56;;;;;;;18.53;16.93;;;;;;;;;;5032525;28;20476;-64
2021/04/09 04:39:22;;;;;;;19.20;17.30;;;;;;;;;;5029977;28;20448;-64
2021/04/09 04:41:50;;;;;;;19.50;17.80;;;;;;;;;;5034267;28;20552;-64
2021/04/09 04:44:17;;;;;;;19.00;17.33;;;;;;;;;;5020945;28;20980;-64
2021/04/09 04:46:43;;;;;;;20.17;18.27;;;;;;;;;;5026890;28;20486;-67
2021/04/09 04:49:10;;;;;;;18.10;16.50;;;;;;;;;;5014733;28;20544;-64
2021/04/09 04:51:37;;;;;;;18.73;16.97;;;;;;;;;;5020695;28;20573;-64
2021/04/09 04:54:03;;;;;;;19.87;18.07;;;;;;;;;;5024941;28;20565;-63
2021/04/09 04:56:30;;;;;;;20.30;18.47;;;;;;;;;;5033665;28;20445;-66
2021/04/09 04:58:58;;;;;;;19.47;17.63;;;;;;;;;;5031190;28;20514;-64
2021/04/09 05:01:24;;;;;;;18.70;17.20;;;;;;;;;;5033973;28;20560;-69
2021/04/09 05:03:51;;;;;;;20.70;18.60;;;;;;;;;;5033154;28;20453;-68
2021/04/09 05:06:17;;;;;;;19.07;17.30;;;;;;;;;;5031962;28;20483;-65
2021/04/09 05:08:44;;;;;;;19.73;17.70;;;;;;;;;;5017636;28;20498;-65
2021/04/09 05:11:11;;;;;;;18.20;16.43;;;;;;;;;;5022472;28;20568;-64
2021/04/09 05:13:37;;;;;;;20.73;18.80;;;;;;;;;;5022338;28;20536;-65
2021/04/09 05:16:05;;;;;;;18.87;17.07;;;;;;;;;;5027563;28;20457;-64
2021/04/09 05:18:32;;;;;;;17.73;16.23;;;;;;;;;;5014367;28;20446;-65
2021/04/09 05:20:58;;;;;;;18.43;16.73;;;;;;;;;;5018881;28;20479;-64
2021/04/09 05:23:25;;;;;;;18.70;17.30;;;;;;;;;;5033423;28;20503;-64
2021/04/09 05:25:52;;;;;;;19.40;17.70;;;;;;;;;;5019385;28;20456;-65
2021/04/09 05:28:18;;;;;;;18.20;16.60;;;;;;;;;;5030723;28;20459;-64
2021/04/09 05:30:45;;;;;;;17.93;16.33;;;;;;;;;;5033438;28;20854;-64
2021/04/09 05:33:12;;;;;;;19.30;17.60;;;;;;;;;;5027673;28;21052;-65
2021/04/09 05:35:39;;;;;;;20.97;18.80;;;;;;;;;;5031087;28;20590;-66
2021/04/09 05:38:06;;;;;;;20.50;18.00;;;;;;;;;;5028308;28;20457;-66
2021/04/09 05:40:32;;;;;;;17.47;16.07;;;;;;;;;;5014361;28;20477;-66
2021/04/09 05:42:59;;;;;;;18.50;16.80;;;;;;;;;;5028080;28;20457;-68
2021/04/09 05:45:26;;;;;;;18.17;16.27;;;;;;;;;;5016325;28;20445;-66
2021/04/09 05:47:53;;;;;;;20.00;18.10;;;;;;;;;;5025492;28;20485;-65
2021/04/09 05:50:20;;;;;;;19.50;17.80;;;;;;;;;;5019081;28;20879;-67
2021/04/09 05:52:48;;;;;;;19.73;17.73;;;;;;;;;;5024761;28;20457;-65
2021/04/09 05:55:15;;;;;;;18.83;17.13;;;;;;;;;;5031228;28;20456;-65
2021/04/09 05:57:41;;;;;;;19.37;17.50;;;;;;;;;;5032097;28;20534;-65
2021/04/09 06:00:09;;;;;;;18.10;16.57;;;;;;;;;;5032238;28;20573;-65
2021/04/09 06:02:35;;;;;;;18.90;17.00;;;;;;;;;;5032270;28;20445;-65
2021/04/09 06:05:02;;;;;;;19.60;17.50;;;;;;;;;;5031300;28;20459;-65
2021/04/09 06:07:29;;;;;;;19.43;17.53;;;;;;;;;;5032208;28;20571;-64
2021/04/09 06:09:56;;;;;;;9.10;8.07;;;;;;;;;;5032044;28;20452;-70
2021/04/09 06:12:23;;;;;;;9.17;8.30;;;;;;;;;;5031897;28;20527;-67
2021/04/09 06:14:51;;;;;;;5.97;5.00;;;;;;;;;;5020550;28;20533;-66
2021/04/09 06:17:18;;;;;;;14.70;9.37;;;;;;;;;;5027262;28;20456;-66
2021/04/09 06:19:47;;;;;;;7.60;6.90;;;;;;;;;;5013945;28;20457;-67
2021/04/09 06:22:13;;;;;;;8.87;8.07;;;;;;;;;;5014148;28;20493;-66
2021/04/09 06:24:41;;;;;;;9.33;7.40;;;;;;;;;;5014513;28;20454;-66
2021/04/09 06:27:08;;;;;;;8.07;7.30;;;;;;;;;;5029002;28;20480;-67
2021/04/09 06:29:35;;;;;;;8.57;7.77;;;;;;;;;;5026811;28;20450;-66
2021/04/09 06:32:02;;;;;;;7.90;7.10;;;;;;;;;;5014979;28;20477;-66
2021/04/09 06:34:28;;;;;;;8.53;7.63;;;;;;;;;;5013378;28;20889;-67
2021/04/09 06:36:55;;;;;;;8.43;7.63;;;;;;;;;;5026605;28;20540;-67
2021/04/09 06:39:22;;;;;;;7.03;6.37;;;;;;;;;;5030659;28;20533;-67
2021/04/09 06:41:49;;;;;;;7.20;6.23;;;;;;;;;;5030489;28;20469;-67
2021/04/09 06:44:18;;;;;;;12.37;7.87;;;;;;;;;;5032436;28;20467;-67
2021/04/09 06:46:44;;;;;;;7.77;6.93;;;;;;;;;;5021173;28;20477;-67
2021/04/09 06:49:11;;;;;;;6.50;5.90;;;;;;;;;;5012549;28;20961;-67
2021/04/09 06:51:38;;;;;;;10.00;8.53;;;;;;;;;;5023500;28;20476;-67
2021/04/09 06:54:05;;;;;;;10.47;7.67;;;;;;;;;;5031551;28;21227;-67
2021/04/09 06:56:34;;;;;;;8.67;7.40;;;;;;;;;;5029855;28;20867;-67
2021/04/09 06:59:02;;;;;;;14.70;13.10;;;;;;;;;;5013900;28;20544;-67
2021/04/09 07:01:28;;;;;;;18.57;16.97;;;;;;;;;;5029363;28;20479;-66
2021/04/09 07:03:56;;;;;;;18.70;17.00;;;;;;;;;;5051952;28;20538;-74
2021/04/09 07:06:23;;;;;;;18.33;16.80;;;;;;;;;;5039381;28;20481;-65
2021/04/09 07:08:49;;;;;;;19.30;17.30;;;;;;;;;;5032369;28;21003;-64
2021/04/09 07:11:16;;;;;;;18.27;16.63;;;;;;;;;;5027054;28;20469;-65
2021/04/09 07:13:49;;;;;;;19.20;17.70;;;;;;;;;;5016619;28;20460;-67
2021/04/09 07:16:16;;;;;;;19.60;17.70;;;;;;;;;;5027563;28;20487;-66
2021/04/09 07:18:46;;;;;;;17.60;16.10;;;;;;;;;;5034735;28;20445;-67
2021/04/09 07:21:19;;;;;;;18.23;16.53;;;;;;;;;;5025019;28;20478;-63
2021/04/09 07:23:46;;;;;;;18.57;16.80;;;;;;;;;;5020099;28;20452;-64
2021/04/09 07:26:33;;;;;;;19.93;18.00;;;;;;;;;;5024943;28;20445;-61
2021/04/09 07:28:59;;;;;;;19.63;17.73;;;;;;;;;;5025553;28;20452;-61
2021/04/09 07:31:29;;;;;;;17.57;15.93;;;;;;;;;;5025447;28;20473;-61
2021/04/09 07:33:55;;;;;;;18.23;16.73;;;;;;;;;;5016134;28;20495;-61
2021/04/09 07:36:22;;;;;;;19.23;16.37;;;;;;;;;;5015160;28;20858;-61
2021/04/09 07:38:52;;;;;;;19.50;17.73;;;;;;;;;;5022537;28;20532;-61
2021/04/09 07:41:18;;;;;;;18.57;16.90;;;;;;;;;;5035679;28;20555;-61
2021/04/09 07:43:45;;;;;;;17.30;15.60;;;;;;;;;;5035600;28;21043;-61
2021/04/09 07:46:20;;;;;;;18.97;16.80;;;;;;;;;;5034173;28;20539;-61
2021/04/09 07:48:49;;;;;;;14.47;9.63;;;;;;;;;;5033523;28;20444;-60
2021/04/09 07:51:18;;;;;;;17.77;16.13;;;;;;;;;;5031401;28;20903;-62
2021/04/09 07:53:46;;;;;;;19.43;17.57;;;;;;;;;;5033453;28;20455;-61
2021/04/09 07:56:13;;;;;;;20.40;18.47;;;;;;;;;;5040990;28;20463;-60
2021/04/09 07:58:40;;;;;;;17.70;15.93;;;;;;;;;;5048257;28;20469;-60
2021/04/09 08:01:18;;;;;;;19.17;17.47;;;;;;;;;;5046658;28;20496;-60
2021/04/09 08:03:46;;;;;;;18.50;16.77;;;;;;;;;;5049903;28;20460;-61
2021/04/09 08:06:14;;;;;;;18.87;17.00;;;;;;;;;;5039014;28;20457;-61
2021/04/09 08:08:55;;;;;;;17.93;16.43;;;;;;;;;;5031035;28;20496;-61
2021/04/09 08:11:23;;;;;;;17.97;16.27;;;;;;;;;;5031924;28;20469;-61
2021/04/09 08:14:00;;;;;;;18.60;17.00;;;;;;;;;;5030499;28;20464;-63
2021/04/09 08:16:28;;;;;;;15.80;13.53;;;;;;;;;;5019843;28;20513;-63
2021/04/09 08:18:57;;;;;;;19.40;17.33;;;;;;;;;;5024585;28;20465;-63
2021/04/09 08:21:25;;;;;;;18.87;16.97;;;;;;;;;;5020389;28;20468;-64
2021/04/09 08:23:52;;;;;;;17.13;15.53;;;;;;;;;;5034984;28;20499;-63
2021/04/09 08:26:19;;;;;;;15.70;14.20;;;;;;;;;;5034133;28;20467;-63
2021/04/09 08:28:46;;;;;;;16.83;15.27;;;;;;;;;;5034676;28;20544;-63
2021/04/09 08:31:13;;;;;;;16.53;15.03;;;;;;;;;;5031296;28;20480;-63
2021/04/09 08:33:40;;;;;;;16.30;14.73;;;;;;;;;;5034614;28;20468;-61
2021/04/09 08:36:07;;;;;;;15.97;14.20;;;;;;;;;;5033508;28;20808;-61
2021/04/09 08:38:35;;;;;;;15.53;14.10;;;;;;;;;;5034527;28;20492;-61
2021/04/09 08:41:02;;;;;;;15.17;13.87;;;;;;;;;;5034107;28;20468;-62
2021/04/09 08:43:28;;;;;;;16.30;14.70;;;;;;;;;;5034431;28;20818;-62
2021/04/09 08:45:55;;;;;;;15.43;14.10;;;;;;;;;;5034490;28;20527;-61
2021/04/09 08:48:22;;;;;;;16.83;15.33;;;;;;;;;;5034276;28;20492;-61
2021/04/09 08:50:49;;;;;;;15.87;14.30;;;;;;;;;;5034302;28;20467;-61
2021/04/09 08:53:23;;;;;;;15.73;14.27;;;;;;;;;;5033990;28;20449;-61
2021/04/09 08:55:50;;;;;;;15.60;14.20;;;;;;;;;;5027076;28;20445;-61
2021/04/09 08:58:18;;;;;;;16.10;14.67;;;;;;;;;;5034087;28;20474;-62
2021/04/09 09:00:44;;;;;;;15.97;14.53;;;;;;;;;;5033700;28;20473;-62
2021/04/09 09:03:22;;;;;;;15.83;14.33;;;;;;;;;;5033453;28;20463;-62
2021/04/09 09:05:54;;;;;;;15.93;14.53;;;;;;;;;;5032798;28;20869;-61
2021/04/09 09:08:21;;;;;;;15.33;13.90;;;;;;;;;;5034021;28;20483;-61
2021/04/09 09:10:48;;;;;;;15.50;14.10;;;;;;;;;;5018902;28;20480;-61
2021/04/09 09:13:36;;;;;;;15.67;14.27;;;;;;;;;;5014155;28;20456;-61
2021/04/09 09:16:12;;;;;;;14.70;13.20;;;;;;;;;;5022314;28;20975;-61
2021/04/09 09:18:43;;;;;;;16.63;15.00;;;;;;;;;;5022929;28;20449;-61
2021/04/09 09:21:11;;;;;;;16.17;14.77;;;;;;;;;;5028964;28;20464;-61
2021/04/09 09:23:42;;;;;;;16.03;14.73;;;;;;;;;;5033052;28;20996;-61
2021/04/09 09:26:18;;;;;;;10.50;9.47;;;;;;;;;;5030488;28;20461;-62
2021/04/09 09:28:46;;;;;;;14.20;12.83;;;;;;;;;;5031137;28;20458;-62
2021/04/09 09:31:27;;;;;;;13.77;12.67;;;;;;;;;;5022918;28;20486;-63
2021/04/09 09:34:27;;;;;;;7.93;5.90;;;;;;;;;;5027969;28;20528;-61
2021/04/09 09:37:00;;;;;;;12.77;11.43;;;;;;;;;;5027428;28;20477;-64
2021/04/09 09:39:37;;;;;;;14.33;12.90;;;;;;;;;;5033176;28;20455;-61
2021/04/09 09:42:06;;;;;;;14.23;12.70;;;;;;;;;;5033229;28;20518;-61
2021/04/09 09:44:34;;;;;;;14.37;13.07;;;;;;;;;;5033278;28;20463;-61
2021/04/09 09:47:02;;;;;;;14.37;13.17;;;;;;;;;;5031953;28;20476;-61
2021/04/09 09:49:32;;;;;;;14.13;12.50;;;;;;;;;;5032866;28;20534;-61
2021/04/09 09:51:59;;;;;;;15.17;13.90;;;;;;;;;;5033174;28;20472;-64
2021/04/09 09:54:27;;;;;;;14.47;13.20;;;;;;;;;;5033122;28;20817;-63
2021/04/09 09:56:54;;;;;;;16.27;11.90;;;;;;;;;;5032448;28;20449;-64
2021/04/09 09:59:22;;;;;;;13.80;12.50;;;;;;;;;;5031489;28;20465;-64
2021/04/09 10:01:52;;;;;;;13.67;12.53;;;;;;;;;;5027486;28;20845;-64
2021/04/09 10:04:19;;;;;;;13.23;12.13;;;;;;;;;;5027825;28;20829;-62
2021/04/09 10:06:51;;;;;;;14.20;13.00;;;;;;;;;;5031841;28;20577;-62
2021/04/09 10:09:27;;;;;;;13.03;11.93;;;;;;;;;;5033388;28;20445;-64
2021/04/09 10:11:54;;;;;;;13.90;12.50;;;;;;;;;;5026015;28;20518;-63
2021/04/09 10:14:20;;;;;;;14.13;11.50;;;;;;;;;;5035649;28;20451;-63
2021/04/09 10:16:47;;;;;;;13.17;11.87;;;;;;;;;;5026957;28;20495;-63
2021/04/09 10:19:14;;;;;;;13.20;11.80;;;;;;;;;;5042412;28;20488;-63
2021/04/09 10:21:41;;;;;;;12.83;11.50;;;;;;;;;;5029504;28;20561;-63
2021/04/09 10:24:10;;;;;;;13.47;11.60;;;;;;;;;;5023404;28;20517;-64
2021/04/09 10:26:37;;;;;;;14.10;12.70;;;;;;;;;;5030399;28;20452;-63
2021/04/09 10:29:17;;;;;;;13.23;12.03;;;;;;;;;;5036368;28;20528;-64
2021/04/09 10:31:44;;;;;;;13.37;12.23;;;;;;;;;;5049620;28;20481;-63
2021/04/09 10:34:11;;;;;;;12.97;11.60;;;;;;;;;;5042097;28;20449;-63
2021/04/09 10:36:37;;;;;;;11.70;10.60;;;;;;;;;;5038157;28;20543;-63
2021/04/09 10:39:12;;;;;;;13.80;11.20;;;;;;;;;;5015099;28;20456;-65
2021/04/09 10:41:39;;;;;;;11.43;10.53;;;;;;;;;;5012288;28;20472;-64
2021/04/09 10:44:07;;;;;;;9.63;8.03;;;;;;;;;;5013873;28;20826;-64
2021/04/09 10:46:35;;;;;;;12.03;10.30;;;;;;;;;;5011865;28;20816;-63
2021/04/09 10:49:02;;;;;;;12.37;11.27;;;;;;;;;;5029363;28;20463;-63
2021/04/09 10:51:29;;;;;;;11.50;10.40;;;;;;;;;;5026971;28;20473;-63
2021/04/09 10:53:56;;;;;;;11.27;10.20;;;;;;;;;;5024380;28;20464;-63
2021/04/09 10:56:23;;;;;;;10.83;9.83;;;;;;;;;;5032761;28;20544;-63
2021/04/09 10:58:50;;;;;;;13.03;11.90;;;;;;;;;;5030576;28;20523;-63
2021/04/09 11:01:17;;;;;;;11.20;10.30;;;;;;;;;;5031688;28;20498;-63
2021/04/09 11:03:44;;;;;;;11.73;10.40;;;;;;;;;;5030487;28;20449;-62
2021/04/09 11:06:11;;;;;;;10.10;9.10;;;;;;;;;;5024862;28;20473;-63
2021/04/09 11:08:39;;;;;;;10.63;9.63;;;;;;;;;;5018175;28;21009;-63
2021/04/09 11:11:06;;;;;;;10.00;9.10;;;;;;;;;;5012323;28;20470;-62
2021/04/09 11:13:35;;;;;;;10.17;9.27;;;;;;;;;;5024756;28;20457;-62
2021/04/09 11:16:03;;;;;;;10.03;9.23;;;;;;;;;;5031576;28;20555;-63
2021/04/09 11:18:52;;;;;;;10.03;9.23;;;;;;;;;;5019215;28;20533;-63
2021/04/09 11:21:33;;;;;;;9.73;8.93;;;;;;;;;;5017920;28;20473;-62
2021/04/09 11:24:00;;;;;;;10.40;9.50;;;;;;;;;;5022312;28;20475;-64
2021/04/09 11:26:27;;;;;;;9.67;8.77;;;;;;;;;;5031383;28;20587;-64
2021/04/09 11:28:54;;;;;;;9.53;8.73;;;;;;;;;;5031421;28;20868;-64
2021/04/09 11:31:22;;;;;;;10.57;9.67;;;;;;;;;;5030843;28;20484;-63
2021/04/09 11:33:49;;;;;;;10.47;9.30;;;;;;;;;;5031654;28;20448;-64
2021/04/09 11:36:16;;;;;;;10.23;9.23;;;;;;;;;;5031028;28;20535;-64
2021/04/09 11:38:42;;;;;;;10.20;9.30;;;;;;;;;;5026289;28;20476;-64
2021/04/09 11:41:25;;;;;;;11.07;10.07;;;;;;;;;;5020934;28;21037;-63
2021/04/09 11:43:52;;;;;;;10.37;9.40;;;;;;;;;;5027881;28;20452;-63
2021/04/09 11:46:34;;;;;;;10.70;9.80;;;;;;;;;;5031216;28;20453;-63
2021/04/09 11:49:01;;;;;;;10.20;9.30;;;;;;;;;;5031200;28;20531;-62
2021/04/09 11:51:28;;;;;;;9.80;8.90;;;;;;;;;;5031329;28;20472;-62
2021/04/09 11:53:58;;;;;;;11.17;10.17;;;;;;;;;;5031280;28;20941;-63
2021/04/09 11:56:37;;;;;;;11.47;10.47;;;;;;;;;;5019165;28;20536;-63
2021/04/09 11:59:09;;;;;;;11.43;10.50;;;;;;;;;;5016692;28;20441;-63
2021/04/09 12:01:37;;;;;;;13.13;11.93;;;;;;;;;;5027062;28;20472;-61
2021/04/09 12:04:03;;;;;;;11.90;10.80;;;;;;;;;;5032161;28;20550;-62
2021/04/09 12:06:36;;;;;;;10.87;9.93;;;;;;;;;;5022525;28;20460;-63
2021/04/09 12:09:03;;;;;;;10.50;9.70;;;;;;;;;;5024777;28;20461;-62
2021/04/09 12:11:30;;;;;;;11.00;10.00;;;;;;;;;;5022217;28;20579;-62
2021/04/09 12:13:57;;;;;;;11.93;10.97;;;;;;;;;;5020818;28;20899;-62
2021/04/09 12:16:24;;;;;;;11.90;10.67;;;;;;;;;;5015525;28;20445;-62
2021/04/09 12:18:51;;;;;;;10.40;9.50;;;;;;;;;;5031942;28;20503;-62
2021/04/09 12:21:18;;;;;;;11.47;10.47;;;;;;;;;;5034400;28;20547;-62
2021/04/09 12:23:45;;;;;;;10.80;9.90;;;;;;;;;;5031152;28;20532;-62
2021/04/09 12:26:11;;;;;;;11.40;10.40;;;;;;;;;;5033249;28;20539;-63
2021/04/09 12:28:38;;;;;;;10.53;9.73;;;;;;;;;;5033497;28;20476;-64
2021/04/09 12:31:05;;;;;;;10.00;9.10;;;;;;;;;;5033518;28;20988;-63
2021/04/09 12:33:32;;;;;;;11.27;10.27;;;;;;;;;;5028445;28;20539;-64
2021/04/09 12:35:59;;;;;;;10.43;9.53;;;;;;;;;;5033538;28;20448;-62
2021/04/09 12:38:26;;;;;;;9.90;9.10;;;;;;;;;;5026025;28;20941;-63
2021/04/09 12:40:52;;;;;;;10.80;9.90;;;;;;;;;;5024944;28;20469;-64
2021/04/09 12:43:19;;;;;;;10.73;9.80;;;;;;;;;;5026857;28;20456;-63
2021/04/09 12:45:46;;;;;;;11.70;10.70;;;;;;;;;;5032291;28;20455;-63
2021/04/09 12:48:12;;;;;;;10.80;9.90;;;;;;;;;;5028068;28;20923;-63
2021/04/09 12:50:39;;;;;;;11.00;10.10;;;;;;;;;;5034127;28;20460;-64
2021/04/09 12:53:06;;;;;;;11.10;9.33;;;;;;;;;;5031044;28;21179;-64
2021/04/09 12:55:33;;;;;;;10.37;9.50;;;;;;;;;;5033378;28;20445;-62
2021/04/09 12:57:59;;;;;;;9.47;8.67;;;;;;;;;;5030420;28;20460;-62
2021/04/09 13:00:26;;;;;;;13.13;10.63;;;;;;;;;;5025848;28;20559;-64
2021/04/09 13:02:53;;;;;;;10.10;9.30;;;;;;;;;;5030259;28;20461;-60
2021/04/09 13:05:19;;;;;;;11.27;10.17;;;;;;;;;;5030903;28;20496;-62
2021/04/09 13:07:46;;;;;;;11.60;10.60;;;;;;;;;;5020902;28;21010;-63
2021/04/09 13:10:14;;;;;;;12.07;11.00;;;;;;;;;;5028060;28;20529;-64
2021/04/09 13:12:41;;;;;;;12.33;11.33;;;;;;;;;;5027464;28;20460;-64
2021/04/09 13:15:08;;;;;;;11.67;10.70;;;;;;;;;;5026742;28;20551;-65
2021/04/09 13:17:35;;;;;;;12.83;11.60;;;;;;;;;;5032471;28;20464;-65
2021/04/09 13:20:01;;;;;;;11.67;10.67;;;;;;;;;;5017362;28;20470;-66
2021/04/09 13:22:28;;;;;;;11.33;10.37;;;;;;;;;;5013797;28;20485;-66
2021/04/09 13:24:54;;;;;;;12.80;11.67;;;;;;;;;;5015554;28;20473;-66
2021/04/09 13:27:22;;;;;;;11.03;10.23;;;;;;;;;;5026844;28;20484;-66
2021/04/09 13:29:48;;;;;;;10.80;9.87;;;;;;;;;;5027932;28;20472;-65
2021/04/09 13:32:15;;;;;;;11.50;10.50;;;;;;;;;;5027839;28;20576;-66
2021/04/09 13:34:42;;;;;;;10.67;9.87;;;;;;;;;;5016317;28;20472;-64
2021/04/09 13:37:08;;;;;;;10.23;9.33;;;;;;;;;;5016365;28;20456;-65
2021/04/09 13:39:35;;;;;;;10.00;9.20;;;;;;;;;;5030579;28;20514;-66
2021/04/09 13:42:02;;;;;;;11.40;10.50;;;;;;;;;;5030187;28;20579;-65
2021/04/09 13:44:29;;;;;;;11.77;10.57;;;;;;;;;;5024322;28;20508;-65
2021/04/09 13:46:56;;;;;;;11.30;10.20;;;;;;;;;;5019633;28;20548;-65
2021/04/09 13:49:23;;;;;;;11.10;10.30;;;;;;;;;;5027157;28;21036;-66
2021/04/09 13:51:49;;;;;;;12.00;10.83;;;;;;;;;;5022205;28;20477;-66
2021/04/09 13:54:16;;;;;;;11.37;10.40;;;;;;;;;;5013898;28;20957;-66
2021/04/09 13:56:42;;;;;;;11.63;10.63;;;;;;;;;;5031900;28;20453;-66
2021/04/09 13:59:09;;;;;;;11.30;10.40;;;;;;;;;;5030657;28;20463;-64
2021/04/09 14:01:36;;;;;;;11.90;10.80;;;;;;;;;;5030658;28;20567;-64
2021/04/09 14:04:03;;;;;;;11.40;10.47;;;;;;;;;;5023524;28;21043;-64
2021/04/09 14:06:30;;;;;;;12.00;11.00;;;;;;;;;;5022269;28;20469;-64
2021/04/09 14:08:56;;;;;;;11.47;10.37;;;;;;;;;;5027219;28;20495;-64
2021/04/09 14:11:23;;;;;;;12.60;11.53;;;;;;;;;;5028434;28;20484;-64
2021/04/09 14:13:50;;;;;;;11.63;10.63;;;;;;;;;;5022022;28;20555;-64
2021/04/09 14:16:16;;;;;;;12.67;11.47;;;;;;;;;;5031661;28;20943;-64
2021/04/09 14:18:44;;;;;;;12.77;11.47;;;;;;;;;;5022511;28;20516;-64
2021/04/09 14:21:12;;;;;;;11.97;11.07;;;;;;;;;;5027437;28;21087;-65
2021/04/09 14:23:38;;;;;;;8.80;8.00;;;;;;;;;;5021734;28;20553;-64
2021/04/09 14:26:05;;;;;;;6.97;6.27;;;;;;;;;;5031210;28;20496;-64